createdAt,value
2019-04-11T00:00:01.298Z,18.37
2019-04-11T00:02:33.450Z,20.27
2019-04-11T00:05:06.425Z,21.27
2019-04-11T00:07:38.573Z,20.17
2019-04-11T00:10:10.942Z,21.75
2019-04-11T00:12:43.386Z,22.32
2019-04-11T00:15:15.892Z,22.77
2019-04-11T00:17:48.245Z,21.75
2019-04-11T00:20:20.170Z,23.38
2019-04-11T00:22:52.653Z,26.90
2019-04-11T00:25:25.280Z,26.07
2019-04-11T00:27:57.443Z,28.62
2019-04-11T00:30:30.305Z,28.15
2019-04-11T00:33:02.531Z,31.80
2019-04-11T00:35:34.193Z,31.48
2019-04-11T00:38:07.642Z,32.75
2019-04-11T00:40:39.676Z,29.25
2019-04-11T00:43:11.612Z,29.77
2019-04-11T00:45:43.581Z,28.47
2019-04-11T00:50:47.628Z,27.35
2019-04-11T00:53:20.511Z,29.02
2019-04-11T00:55:53.518Z,28.07
2019-04-11T00:58:25.691Z,30.65
2019-04-11T01:00:57.622Z,29.25
2019-04-11T01:03:30.490Z,30.00
2019-04-11T01:06:03.500Z,30.17
2019-04-11T01:08:35.717Z,28.45
2019-04-11T01:11:08.011Z,28.35
2019-04-11T01:13:47.696Z,27.80
2019-04-11T01:16:20.581Z,26.68
2019-04-11T01:18:52.514Z,25.82
2019-04-11T01:21:24.498Z,27.27
2019-04-11T01:23:57.506Z,25.85
2019-04-11T01:26:29.728Z,25.30
2019-04-11T01:29:01.583Z,25.50
2019-04-11T01:31:35.905Z,25.17
2019-04-11T01:34:08.575Z,25.27
2019-04-11T01:39:16.846Z,24.18
2019-04-11T01:41:48.872Z,25.70
2019-04-11T01:44:20.930Z,24.60
2019-04-11T01:46:52.603Z,25.23
2019-04-11T01:49:26.290Z,27.42
2019-04-11T01:51:58.580Z,26.12
2019-04-11T01:54:30.729Z,27.32
2019-04-11T01:57:03.479Z,30.13
2019-04-11T01:59:35.493Z,30.45
2019-04-11T02:02:09.527Z,29.42
2019-04-11T02:04:54.857Z,29.50
2019-04-11T02:07:26.904Z,28.15
2019-04-11T02:09:58.390Z,28.90
2019-04-11T02:12:31.043Z,28.67
2019-04-11T02:15:03.994Z,27.85
2019-04-11T02:17:36.979Z,30.20
2019-04-11T02:20:09.417Z,29.80
2019-04-11T02:22:46.543Z,30.60
2019-04-11T02:25:23.165Z,31.57
2019-04-11T02:27:56.036Z,32.63
2019-04-11T02:30:28.446Z,32.65
2019-04-11T02:33:01.275Z,32.88
2019-04-11T02:35:34.997Z,33.35
2019-04-11T02:38:08.031Z,35.20
2019-04-11T02:40:41.242Z,35.50
2019-04-11T02:43:15.881Z,36.70
2019-04-11T02:45:58.815Z,33.63
2019-04-11T02:48:22.098Z,35.60
2019-04-11T02:50:54.408Z,34.15
2019-04-11T02:53:30.035Z,33.80
2019-04-11T02:56:02.842Z,31.48
2019-04-11T02:58:36.709Z,31.05
2019-04-11T03:01:10.457Z,32.05
2019-04-11T03:03:42.522Z,31.77
2019-04-11T03:06:15.237Z,29.92
2019-04-11T03:08:49.017Z,31.52
2019-04-11T03:11:21.904Z,31.60
2019-04-11T03:13:55.645Z,32.28
2019-04-11T03:16:38.221Z,34.90
2019-04-11T03:19:17.964Z,30.52
2019-04-11T03:21:39.205Z,32.28
2019-04-11T03:24:10.937Z,33.00
2019-04-11T03:26:43.576Z,32.75
2019-04-11T03:29:17.619Z,33.58
2019-04-11T03:32:32.114Z,31.20
2019-04-11T03:35:16.996Z,28.75
2019-04-11T03:37:24.280Z,28.00
2019-04-11T03:39:50.850Z,29.90
2019-04-11T03:42:25.086Z,29.15
2019-04-11T03:44:44.969Z,27.95
2019-04-11T03:47:29.186Z,27.35
2019-04-11T03:49:51.952Z,27.22
2019-04-11T03:52:19.937Z,26.93
2019-04-11T03:54:53.947Z,28.85
2019-04-11T03:57:27.569Z,27.32
2019-04-11T04:00:01.062Z,26.12
2019-04-11T04:02:35.018Z,25.30
2019-04-11T04:05:08.871Z,26.30
2019-04-11T04:07:41.280Z,27.00
2019-04-11T04:10:15.671Z,26.68
2019-04-11T04:12:47.549Z,26.12
2019-04-11T04:15:37.513Z,27.05
2019-04-11T04:17:57.334Z,25.50
2019-04-11T04:20:42.042Z,25.85
2019-04-11T04:23:19.047Z,25.70
2019-04-11T04:25:51.762Z,25.88
2019-04-11T04:28:23.856Z,24.40
2019-04-11T04:33:33.243Z,22.65
2019-04-11T04:36:06.506Z,22.70
2019-04-11T04:38:39.805Z,22.87
2019-04-11T04:41:22.436Z,24.10
2019-04-11T04:43:49.102Z,23.57
2019-04-11T04:46:34.773Z,22.40
2019-04-11T04:48:55.992Z,21.97
2019-04-11T04:51:28.928Z,20.82
2019-04-11T04:54:01.453Z,21.80
2019-04-11T04:56:34.914Z,21.65
2019-04-11T04:59:09.446Z,20.90
2019-04-11T05:01:41.718Z,19.73
2019-04-11T05:04:15.774Z,19.65
2019-04-11T05:06:50.810Z,21.37
2019-04-11T05:09:23.545Z,19.92
2019-04-11T05:11:55.540Z,19.90
2019-04-11T05:14:28.168Z,19.52
2019-04-11T05:17:02.475Z,18.52
2019-04-11T05:19:34.229Z,18.10
2019-04-11T05:22:08.475Z,18.55
2019-04-11T05:24:41.067Z,39.38
2019-04-11T05:27:12.819Z,18.30
2019-04-11T05:29:45.901Z,18.23
2019-04-11T05:32:17.657Z,18.85
2019-04-11T05:34:49.714Z,19.67
2019-04-11T05:37:22.727Z,19.92
2019-04-11T05:39:54.574Z,19.52
2019-04-11T05:42:27.386Z,18.73
2019-04-11T05:44:59.254Z,19.45
2019-04-11T05:47:31.712Z,21.57
2019-04-11T05:50:20.220Z,21.02
2019-04-11T05:52:52.469Z,22.00
2019-04-11T05:55:25.905Z,20.60
2019-04-11T05:58:00.819Z,22.20
2019-04-11T06:00:49.977Z,25.02
2019-04-11T06:03:23.690Z,50.10
2019-04-11T06:06:06.613Z,60.20
2019-04-11T06:08:40.200Z,60.28
2019-04-11T06:11:24.150Z,71.47
2019-04-11T06:14:00.737Z,69.97
2019-04-11T06:16:39.940Z,66.90
2019-04-11T06:19:23.415Z,74.67
2019-04-11T06:22:00.286Z,83.55
2019-04-11T06:24:36.679Z,84.75
2019-04-11T06:27:11.298Z,81.30
2019-04-11T06:30:01.268Z,79.90
2019-04-11T06:32:52.093Z,76.00
2019-04-11T06:35:26.855Z,72.87
2019-04-11T06:38:03.186Z,60.05
2019-04-11T06:40:44.011Z,52.48
2019-04-11T06:43:18.342Z,55.45
2019-04-11T06:46:11.172Z,53.98
2019-04-11T06:48:56.575Z,59.40
2019-04-11T06:51:33.313Z,55.30
2019-04-11T06:54:23.292Z,34.50
2019-04-11T06:56:55.285Z,38.25
2019-04-11T06:59:34.568Z,39.00
2019-04-11T07:02:16.450Z,43.55
2019-04-11T07:04:51.850Z,29.27
2019-04-11T07:07:28.793Z,32.13
2019-04-11T07:10:02.148Z,33.15
2019-04-11T07:12:39.149Z,36.85
2019-04-11T07:15:14.448Z,37.48
2019-04-11T07:18:07.493Z,49.58
2019-04-11T07:20:43.917Z,50.13
2019-04-11T07:23:33.680Z,47.60
2019-04-11T07:26:13.223Z,48.60
2019-04-11T07:28:47.906Z,45.98
2019-04-11T07:31:21.685Z,47.05
2019-04-11T07:33:56.237Z,46.08
2019-04-11T07:36:46.265Z,56.63
2019-04-11T07:39:25.722Z,64.75
2019-04-11T07:42:00.306Z,65.92
2019-04-11T07:44:38.583Z,71.75
2019-04-11T07:47:18.606Z,63.30
2019-04-11T07:49:49.639Z,65.85
2019-04-11T07:52:27.222Z,62.85
2019-04-11T07:55:00.179Z,62.85
2019-04-11T07:57:33.744Z,60.73
2019-04-11T08:00:36.577Z,67.12
2019-04-11T08:03:04.589Z,78.78
2019-04-11T08:05:56.602Z,73.80
2019-04-11T08:08:41.874Z,108.55
2019-04-11T08:11:15.860Z,111.10
2019-04-11T08:13:53.586Z,117.50
2019-04-11T08:16:45.361Z,124.02
2019-04-11T08:19:35.172Z,120.67
2019-04-11T08:22:14.862Z,120.20
2019-04-11T08:25:05.011Z,116.70
2019-04-11T08:27:50.033Z,102.42
2019-04-11T08:30:12.775Z,84.15
2019-04-11T08:32:46.442Z,79.35
2019-04-11T08:35:40.175Z,72.32
2019-04-11T08:40:55.532Z,49.90
2019-04-11T08:43:35.150Z,49.40
2019-04-11T08:46:08.898Z,55.65
2019-04-11T08:48:42.805Z,30.37
2019-04-11T08:51:17.165Z,22.40
2019-04-11T08:54:07.124Z,18.15
2019-04-11T08:56:41.107Z,20.88
2019-04-11T08:59:33.574Z,22.55
2019-04-11T09:02:06.853Z,27.02
2019-04-11T09:04:41.225Z,32.17
2019-04-11T09:07:15.343Z,39.95
2019-04-11T09:09:48.818Z,48.55
2019-04-11T09:12:20.605Z,45.45
2019-04-11T09:15:02.880Z,51.28
2019-04-11T09:17:36.709Z,58.15
2019-04-11T09:20:11.461Z,47.13
2019-04-11T09:22:47.679Z,41.68
2019-04-11T09:25:21.375Z,46.10
2019-04-11T09:28:06.454Z,43.70
2019-04-11T09:30:57.007Z,40.48
2019-04-11T09:33:39.719Z,29.20
2019-04-11T09:36:30.539Z,32.73
2019-04-11T09:39:17.102Z,36.98
2019-04-11T09:42:00.924Z,37.25
2019-04-11T09:44:49.954Z,35.55
2019-04-11T09:47:41.635Z,34.15
2019-04-11T09:50:30.047Z,34.30
2019-04-11T09:53:02.222Z,31.37
2019-04-11T09:58:27.522Z,34.75
2019-04-11T10:01:01.672Z,43.00
2019-04-11T10:03:36.577Z,40.98
2019-04-11T10:06:22.026Z,36.05
2019-04-11T10:08:55.853Z,38.35
2019-04-11T10:11:36.177Z,30.12
2019-04-11T10:14:13.778Z,50.83
2019-04-11T10:16:56.450Z,46.60
2019-04-11T10:22:08.853Z,81.22
2019-04-11T10:24:51.456Z,73.97
2019-04-11T10:27:31.007Z,57.60
2019-04-11T10:30:19.978Z,55.08
2019-04-11T10:32:59.444Z,49.27
2019-04-11T10:35:42.729Z,40.65
2019-04-11T10:38:16.265Z,36.40
2019-04-11T10:40:50.379Z,36.75
2019-04-11T10:43:22.571Z,42.60
2019-04-11T10:48:38.812Z,44.53
2019-04-11T10:51:12.951Z,44.03
2019-04-11T10:53:44.632Z,57.70
2019-04-11T10:56:34.814Z,49.65
2019-04-11T10:59:07.078Z,31.33
2019-04-11T11:01:40.676Z,33.15
2019-04-11T11:04:18.044Z,41.65
2019-04-11T11:06:51.871Z,34.95
2019-04-11T11:09:26.236Z,28.35
2019-04-11T11:12:05.508Z,30.30
2019-04-11T11:14:57.079Z,33.45
2019-04-11T11:18:20.517Z,34.00
2019-04-11T11:20:29.994Z,35.23
2019-04-11T11:22:58.327Z,39.92
2019-04-11T11:25:37.437Z,33.40
2019-04-11T11:28:09.752Z,31.62
2019-04-11T11:30:59.177Z,32.83
2019-04-11T11:33:32.632Z,33.20
2019-04-11T11:36:25.719Z,33.23
2019-04-11T11:39:15.389Z,33.38
2019-04-11T11:41:48.942Z,32.90
2019-04-11T11:44:24.467Z,31.75
2019-04-11T11:47:12.951Z,33.63
2019-04-11T11:49:54.600Z,37.42
2019-04-11T11:52:36.053Z,37.95
2019-04-11T11:55:10.379Z,40.48
2019-04-11T11:57:44.838Z,38.33
2019-04-11T12:00:21.435Z,37.28
2019-04-11T12:03:02.493Z,36.58
2019-04-11T12:05:36.811Z,39.25
2019-04-11T12:08:28.837Z,37.58
2019-04-11T12:11:02.493Z,38.85
2019-04-11T12:13:40.590Z,34.83
2019-04-11T12:16:20.732Z,33.13
2019-04-11T12:18:54.380Z,35.40
2019-04-11T12:21:28.496Z,37.40
2019-04-11T12:24:07.030Z,37.13
2019-04-11T12:26:47.609Z,40.78
2019-04-11T12:29:38.616Z,42.08
2019-04-11T12:32:17.360Z,43.50
2019-04-11T12:34:59.863Z,46.08
2019-04-11T12:37:33.679Z,44.48
2019-04-11T12:40:18.285Z,44.88
2019-04-11T12:42:50.152Z,42.25
2019-04-11T12:45:26.927Z,43.45
2019-04-11T12:48:01.166Z,41.35
2019-04-11T12:50:49.517Z,43.68
2019-04-11T12:53:21.248Z,41.18
2019-04-11T12:55:54.869Z,42.08
2019-04-11T12:58:30.991Z,41.15
2019-04-11T13:01:04.737Z,42.23
2019-04-11T13:03:54.809Z,50.00
2019-04-11T13:06:40.055Z,50.75
2019-04-11T13:09:19.671Z,49.63
2019-04-11T13:12:09.927Z,49.60
2019-04-11T13:14:45.927Z,43.08
2019-04-11T13:17:19.419Z,38.25
2019-04-11T13:20:08.926Z,38.33
2019-04-11T13:22:41.222Z,37.17
2019-04-11T13:25:31.407Z,36.05
2019-04-11T13:28:03.377Z,36.23
2019-04-11T13:30:36.861Z,38.55
2019-04-11T13:33:11.102Z,34.08
2019-04-11T13:35:58.282Z,33.98
2019-04-11T13:38:32.320Z,32.03
2019-04-11T13:41:21.579Z,31.50
2019-04-11T13:43:55.713Z,29.52
2019-04-11T13:46:31.978Z,28.02
2019-04-11T13:49:21.754Z,22.32
2019-04-11T13:52:11.100Z,24.35
2019-04-11T13:54:56.874Z,23.32
2019-04-11T13:57:32.710Z,23.85
2019-04-11T14:00:24.381Z,20.68
2019-04-11T14:02:58.084Z,21.05
2019-04-11T14:05:31.534Z,20.92
2019-04-11T14:08:03.452Z,18.10
2019-04-11T14:10:35.474Z,20.55
2019-04-11T14:13:08.829Z,20.45
2019-04-11T14:15:45.341Z,21.20
2019-04-11T14:18:19.272Z,19.82
2019-04-11T14:20:52.778Z,25.60
2019-04-11T14:23:26.288Z,25.27
2019-04-11T14:25:59.565Z,26.68
2019-04-11T14:28:39.128Z,28.75
2019-04-11T14:31:29.093Z,29.25
2019-04-11T14:34:02.563Z,28.20
2019-04-11T14:36:39.089Z,28.60
2019-04-11T14:39:12.727Z,28.90
2019-04-11T14:41:49.135Z,28.05
2019-04-11T14:44:21.027Z,26.57
2019-04-11T14:47:10.731Z,27.13
2019-04-11T14:49:45.158Z,27.60
2019-04-11T14:52:33.401Z,25.72
2019-04-11T14:55:08.550Z,22.50
2019-04-11T14:57:47.046Z,24.70
2019-04-11T15:00:24.984Z,22.90
2019-04-11T15:03:02.845Z,22.80
2019-04-11T15:05:44.575Z,22.22
2019-04-11T15:08:17.662Z,22.52
2019-04-11T15:11:01.462Z,22.20
2019-04-11T15:13:35.159Z,20.65
2019-04-11T15:16:24.981Z,21.97
2019-04-11T15:18:58.388Z,20.82
2019-04-11T15:21:47.993Z,21.12
2019-04-11T15:24:20.226Z,21.57
2019-04-11T15:26:56.817Z,22.00
2019-04-11T15:29:30.010Z,20.77
2019-04-11T15:32:19.255Z,20.82
2019-04-11T15:34:52.882Z,21.23
2019-04-11T15:37:32.917Z,20.30
2019-04-11T15:40:08.341Z,18.80
2019-04-11T15:42:47.857Z,18.55
2019-04-11T15:45:21.109Z,19.77
2019-04-11T15:47:57.436Z,18.02
2019-04-11T15:50:47.039Z,18.42
2019-04-11T15:53:36.972Z,17.50
2019-04-11T15:56:27.262Z,17.37
2019-04-11T15:59:12.930Z,17.15
2019-04-11T16:01:56.624Z,17.45
2019-04-11T16:04:30.287Z,17.40
2019-04-11T16:07:12.131Z,17.30
2019-04-11T16:09:46.033Z,18.30
2019-04-11T16:12:19.375Z,20.52
2019-04-11T16:15:09.515Z,17.40
2019-04-11T16:17:59.081Z,18.42
2019-04-11T16:20:31.154Z,18.70
2019-04-11T16:23:21.157Z,19.70
2019-04-11T16:25:53.319Z,19.30
2019-04-11T16:28:38.238Z,20.52
2019-04-11T16:31:10.321Z,20.70
2019-04-11T16:33:49.659Z,19.35
2019-04-11T16:36:27.248Z,21.35
2019-04-11T16:39:04.363Z,20.82
2019-04-11T16:41:54.533Z,20.23
2019-04-11T16:44:46.288Z,23.90
2019-04-11T16:47:34.921Z,22.55
2019-04-11T16:50:06.849Z,26.10
2019-04-11T16:52:39.327Z,23.60
2019-04-11T16:55:11.528Z,22.55
2019-04-11T16:57:44.220Z,24.05
2019-04-11T17:00:20.361Z,25.30
2019-04-11T17:02:54.729Z,26.73
2019-04-11T17:05:26.811Z,27.82
2019-04-11T17:08:15.167Z,25.50
2019-04-11T17:11:00.266Z,26.02
2019-04-11T17:13:32.620Z,52.50
2019-04-11T17:16:07.178Z,25.10
2019-04-11T17:18:38.822Z,31.00
2019-04-11T17:21:10.672Z,27.60
2019-04-11T17:23:46.833Z,26.20
2019-04-11T17:26:16.809Z,26.17
2019-04-11T17:28:48.558Z,25.20
2019-04-11T17:31:20.666Z,27.02
2019-04-11T17:33:52.442Z,26.15
2019-04-11T17:36:24.324Z,25.50
2019-04-11T17:38:55.856Z,27.30
2019-04-11T17:41:28.221Z,26.40
2019-04-11T17:44:00.922Z,30.00
2019-04-11T17:46:33.953Z,31.07
2019-04-11T17:49:06.310Z,29.72
2019-04-11T17:51:38.531Z,31.33
2019-04-11T17:54:10.922Z,30.70
2019-04-11T17:59:14.336Z,32.58
2019-04-11T18:01:46.577Z,34.48
2019-04-11T18:04:18.158Z,32.05
2019-04-11T18:06:50.122Z,31.10
2019-04-11T18:09:25.570Z,32.98
2019-04-11T18:11:56.247Z,31.12
2019-04-11T18:14:30.747Z,29.87
2019-04-11T18:17:04.526Z,31.15
2019-04-11T18:19:36.234Z,29.02
2019-04-11T18:22:13.344Z,29.85
2019-04-11T18:24:42.942Z,31.05
2019-04-11T18:29:45.996Z,30.25
2019-04-11T18:32:17.704Z,32.63
2019-04-11T18:34:49.591Z,35.78
2019-04-11T18:37:21.326Z,35.28
2019-04-11T18:39:53.304Z,32.28
2019-04-11T18:42:25.858Z,34.50
2019-04-11T18:47:28.915Z,34.30
2019-04-11T18:50:00.628Z,32.75
2019-04-11T18:52:32.611Z,33.25
2019-04-11T18:55:06.715Z,52.50
2019-04-11T18:57:38.488Z,265.18
2019-04-11T19:00:13.182Z,65.25
2019-04-11T19:02:45.262Z,42.23
2019-04-11T19:05:28.252Z,38.05
2019-04-11T19:07:51.128Z,48.70
2019-04-11T19:10:23.024Z,38.00
2019-04-11T19:12:55.489Z,37.45
2019-04-11T19:15:27.557Z,42.08
2019-04-11T19:18:06.382Z,37.35
2019-04-11T19:20:32.967Z,37.75
2019-04-11T19:23:07.621Z,37.93
2019-04-11T19:25:42.377Z,41.45
2019-04-11T19:28:12.362Z,41.90
2019-04-11T19:30:44.711Z,42.80
2019-04-11T19:33:19.100Z,42.95
2019-04-11T19:35:51.320Z,42.33
2019-04-11T19:38:27.962Z,42.83
2019-04-11T19:40:59.693Z,51.92
2019-04-11T19:43:32.283Z,42.43
2019-04-11T19:46:04.074Z,40.43
2019-04-11T19:48:36.380Z,41.65
2019-04-11T19:51:10.795Z,40.75
2019-04-11T19:53:43.014Z,39.13
2019-04-11T19:56:22.476Z,39.80
2019-04-11T19:58:54.162Z,41.10
2019-04-11T20:01:26.105Z,39.33
2019-04-11T20:03:58.199Z,42.75
2019-04-11T20:06:30.233Z,41.08
2019-04-11T20:09:02.446Z,37.00
2019-04-11T20:11:35.887Z,36.90
2019-04-11T20:14:08.179Z,37.25
2019-04-11T20:16:42.055Z,39.18
2019-04-11T20:19:14.483Z,41.60
2019-04-11T20:21:46.554Z,40.65
2019-04-11T20:24:18.374Z,41.63
2019-04-11T20:26:50.946Z,44.15
2019-04-11T20:29:22.697Z,42.67
2019-04-11T20:31:54.987Z,41.55
2019-04-11T20:34:28.160Z,40.08
2019-04-11T20:37:00.149Z,40.35
2019-04-11T20:39:33.105Z,39.80
2019-04-11T20:42:05.284Z,38.88
2019-04-11T20:44:37.658Z,37.70
2019-04-11T20:49:42.858Z,35.98
2019-04-11T20:52:14.614Z,36.35
2019-04-11T20:54:46.256Z,34.80
2019-04-11T20:57:25.535Z,60.70
2019-04-11T20:59:52.910Z,35.30
2019-04-11T21:02:28.396Z,36.45
2019-04-11T21:04:58.879Z,36.98
2019-04-11T21:07:32.579Z,39.40
2019-04-11T21:10:06.081Z,39.73
2019-04-11T21:12:38.075Z,40.25
2019-04-11T21:15:10.193Z,42.03
2019-04-11T21:17:42.526Z,44.45
2019-04-11T21:20:14.238Z,47.80
2019-04-11T21:22:46.228Z,46.13
2019-04-11T21:25:18.039Z,44.95
2019-04-11T21:27:50.221Z,47.95
2019-04-11T21:32:53.049Z,49.38
2019-04-11T21:35:24.783Z,47.80
2019-04-11T21:37:57.901Z,48.33
2019-04-11T21:40:35.643Z,46.33
2019-04-11T21:43:06.176Z,46.80
2019-04-11T21:45:38.474Z,46.02
2019-04-11T21:48:10.375Z,46.63
2019-04-11T21:50:42.185Z,49.75
2019-04-11T21:53:14.981Z,47.75
2019-04-11T21:55:47.651Z,47.03
2019-04-11T21:58:20.553Z,48.95
2019-04-11T22:03:26.740Z,49.15
2019-04-11T22:06:00.102Z,49.80
2019-04-11T22:08:34.536Z,49.05
2019-04-11T22:11:09.825Z,49.15
2019-04-11T22:13:40.911Z,49.90
2019-04-11T22:16:14.288Z,49.18
2019-04-11T22:18:46.323Z,51.10
2019-04-11T22:21:18.173Z,48.45
2019-04-11T22:23:50.169Z,51.92
2019-04-11T22:26:22.056Z,53.78
2019-04-11T22:28:55.112Z,52.83
2019-04-11T22:31:27.931Z,53.55
2019-04-11T22:34:17.734Z,54.08
2019-04-11T22:36:49.989Z,57.55
2019-04-11T22:39:21.602Z,58.08
2019-04-11T22:41:53.812Z,61.13
2019-04-11T22:44:25.781Z,46.75
2019-04-11T22:46:57.773Z,49.38
2019-04-11T22:49:29.487Z,55.60
2019-04-11T22:52:01.316Z,61.80
2019-04-11T22:54:33.826Z,61.80
2019-04-11T22:57:06.227Z,58.52
2019-04-11T22:59:37.764Z,54.35
2019-04-11T23:02:11.520Z,56.35
2019-04-11T23:04:46.931Z,56.92
2019-04-11T23:07:17.779Z,62.85
2019-04-11T23:09:50.232Z,62.38
2019-04-11T23:12:22.174Z,60.23
2019-04-11T23:14:54.022Z,60.52
2019-04-11T23:17:26.437Z,62.70
2019-04-11T23:19:58.351Z,64.25
2019-04-11T23:22:30.766Z,61.40
2019-04-11T23:25:03.062Z,60.90
2019-04-11T23:27:35.278Z,65.57
2019-04-11T23:30:08.461Z,64.07
2019-04-11T23:32:41.108Z,64.17
2019-04-11T23:35:13.104Z,61.90
2019-04-11T23:37:51.952Z,61.80
2019-04-11T23:40:24.840Z,58.20
2019-04-11T23:42:56.363Z,60.43
2019-04-11T23:45:29.865Z,68.07
2019-04-11T23:48:01.467Z,72.92
2019-04-11T23:50:33.892Z,75.22
2019-04-11T23:53:05.867Z,72.87
2019-04-11T23:55:37.674Z,72.55
2019-04-11T23:58:09.574Z,68.37
